Time;durP1;ratioP1;P1;durP2;ratioP2;P2;SDS_P1;SDS_P2;PMS_P1;PMS_P2;Temp;Humidity;BMP_temperature;BMP_pressure;BME280_temperature;BME280_humidity;BME280_pressure;Samples;Min_cycle;Max_cycle;Signal;HPM_P1;HPM_P2
2024/04/12 00:02:26;;;;;;;;;;;;;;;;;;5482556;26;20002;-83
2024/04/12 00:04:53;;;;;;;;;;;;;;;;;;5478417;26;19999;-84
2024/04/12 00:07:22;;;;;;;;;;;;;;;;;;5466778;26;20447;-82
2024/04/12 00:09:52;;;;;;;;;;;;;;;;;;5478743;26;20044;-83
2024/04/12 00:12:25;;;;;;;;;;;;;;;;;;5482943;26;20025;-82
2024/04/12 00:14:51;;;;;;;;;;;;;;;;;;5476706;26;20018;-82
2024/04/12 00:17:20;;;;;;;;;;;;;;;;;;5478995;26;20126;-83
2024/04/12 00:19:46;;;;;;;;;;;;;;;;;;5477851;26;20007;-83
2024/04/12 00:22:17;;;;;;;;;;;;;;;;;;5481070;26;20529;-83
2024/04/12 00:24:43;;;;;;;;;;;;;;;;;;5463815;26;19999;-83
2024/04/12 00:27:15;;;;;;;;;;;;;;;;;;5480269;26;20016;-85
2024/04/12 00:29:41;;;;;;;;;;;;;;;;;;5480598;26;20013;-83
2024/04/12 00:32:18;;;;;;;;;;;;;;;;;;5479735;26;20060;-84
2024/04/12 00:34:47;;;;;;;;;;;;;;;;;;5483801;26;20014;-83
2024/04/12 00:37:16;;;;;;;;;;;;;;;;;;5484208;26;20117;-83
2024/04/12 00:39:47;;;;;;;;;;;;;;;;;;5480506;26;20001;-83
2024/04/12 00:42:18;;;;;;;;;;;;;;;;;;5475063;26;20551;-83
2024/04/12 00:44:45;;;;;;;;;;;;;;;;;;5483960;26;20006;-83
2024/04/12 00:47:15;;;;;;;;;;;;;;;;;;5485254;26;19999;-83
2024/04/12 00:49:49;;;;;;;;;;;;;;;;;;5477382;26;20259;-84
2024/04/12 00:52:22;;;;;;;;;;;;;;;;;;5486104;26;20082;-82
2024/04/12 00:54:53;;;;;;;;;;;;;;;;;;5482547;26;20393;-82
2024/04/12 00:57:22;;;;;;;;;;;;;;;;;;5475310;26;20011;-83
2024/04/12 00:59:51;;;;;;;;;;;;;;;;;;5484274;26;19994;-82
2024/04/12 01:02:21;;;;;;;;;;;;;;;;;;5486661;26;19998;-82
2024/04/12 01:04:47;;;;;;;;;;;;;;;;;;5482896;26;19991;-82
2024/04/12 01:07:18;;;;;;;;;;;;;;;;;;5479006;26;20021;-82
2024/04/12 01:09:44;;;;;;;;;;;;;;;;;;5483736;26;19998;-83
2024/04/12 01:12:16;;;;;;;;;;;;;;;;;;5485194;26;20025;-83
2024/04/12 01:14:42;;;;;;;;;;;;;;;;;;5484044;26;20025;-84
2024/04/12 01:17:11;;;;;;;;;;;;;;;;;;5482047;26;20010;-83
2024/04/12 01:19:38;;;;;;;;;;;;;;;;;;5482912;26;20010;-83
2024/04/12 01:22:07;;;;;;;;;;;;;;;;;;5485647;26;20010;-85
2024/04/12 01:24:33;;;;;;;;;;;;;;;;;;5493259;26;20114;-85
2024/04/12 01:27:05;;;;;;;;;;;;;;;;;;5479064;26;20002;-83
2024/04/12 01:29:32;;;;;;;;;;;;;;;;;;5486522;26;20061;-82
2024/04/12 01:32:04;;;;;;;;;;;;;;;;;;5482268;26;20006;-83
2024/04/12 01:34:30;;;;;;;;;;;;;;;;;;5469478;26;20014;-82
2024/04/12 01:37:00;;;;;;;;;;;;;;;;;;5480905;26;20343;-83
2024/04/12 01:39:28;;;;;;;;;;;;;;;;;;5470269;26;20070;-83
2024/04/12 01:41:57;;;;;;;;;;;;;;;;;;5481449;26;20002;-83
2024/04/12 01:44:24;;;;;;;;;;;;;;;;;;5487111;26;20057;-82
2024/04/12 01:46:53;;;;;;;;;;;;;;;;;;5479914;26;20002;-83
2024/04/12 01:49:22;;;;;;;;;;;;;;;;;;5485544;26;20010;-82
2024/04/12 01:51:53;;;;;;;;;;;;;;;;;;5481225;26;20002;-81
2024/04/12 01:54:21;;;;;;;;;;;;;;;;;;5484027;26;19999;-82
2024/04/12 01:56:50;;;;;;;;;;;;;;;;;;5480126;26;19999;-82
2024/04/12 01:59:20;;;;;;;;;;;;;;;;;;5485856;26;20002;-82
2024/04/12 02:01:49;;;;;;;;;;;;;;;;;;5480830;26;19998;-82
2024/04/12 02:04:18;;;;;;;;;;;;;;;;;;5485214;26;20010;-83
2024/04/12 02:06:48;;;;;;;;;;;;;;;;;;5481409;26;20017;-84
2024/04/12 02:09:14;;;;;;;;;;;;;;;;;;5469145;26;20011;-84
2024/04/12 02:11:45;;;;;;;;;;;;;;;;;;5457678;26;20017;-83
2024/04/12 02:14:11;;;;;;;;;;;;;;;;;;5467027;26;20087;-83
2024/04/12 02:16:41;;;;;;;;;;;;;;;;;;5466708;26;20343;-83
2024/04/12 02:19:10;;;;;;;;;;;;;;;;;;5497638;26;20001;-83
2024/04/12 02:21:38;;;;;;;;;;;;;;;;;;5502486;26;20001;-83
2024/04/12 02:24:04;;;;;;;;;;;;;;;;;;5495506;26;20063;-83
2024/04/12 02:26:34;;;;;;;;;;;;;;;;;;5503176;26;20006;-84
2024/04/12 02:29:01;;;;;;;;;;;;;;;;;;5503194;26;20017;-84
2024/04/12 02:31:31;;;;;;;;;;;;;;;;;;5493403;26;20002;-84
2024/04/12 02:33:58;;;;;;;;;;;;;;;;;;5467570;26;20011;-84
2024/04/12 02:36:30;;;;;;;;;;;;;;;;;;5467913;26;20033;-82
2024/04/12 02:38:56;;;;;;;;;;;;;;;;;;5453432;26;19998;-83
2024/04/12 02:41:30;;;;;;;;;;;;;;;;;;5468284;26;19999;-82
2024/04/12 02:44:01;;;;;;;;;;;;;;;;;;5467418;26;20025;-81
2024/04/12 02:46:29;;;;;;;;;;;;;;;;;;5466725;26;20056;-83
2024/04/12 02:48:59;;;;;;;;;;;;;;;;;;5466652;26;19999;-83
2024/04/12 02:51:29;;;;;;;;;;;;;;;;;;5467773;26;19999;-83
2024/04/12 02:53:57;;;;;;;;;;;;;;;;;;5496820;26;20001;-84
2024/04/12 02:56:27;;;;;;;;;;;;;;;;;;5504632;26;19998;-85
2024/04/12 02:58:53;;;;;;;;;;;;;;;;;;5504558;26;20053;-83
2024/04/12 03:01:21;;;;;;;;;;;;;;;;;;5504153;26;19998;-83
2024/04/12 03:03:47;;;;;;;;;;;;;;;;;;5504931;26;20026;-84
2024/04/12 03:06:17;;;;;;;;;;;;;;;;;;5495437;26;20010;-84
2024/04/12 03:08:44;;;;;;;;;;;;;;;;;;5457397;26;20093;-83
2024/04/12 03:11:14;;;;;;;;;;;;;;;;;;5469019;26;20124;-83
2024/04/12 03:13:40;;;;;;;;;;;;;;;;;;5471509;26;20002;-83
2024/04/12 03:16:13;;;;;;;;;;;;;;;;;;5473204;26;20064;-84
2024/04/12 03:18:39;;;;;;;;;;;;;;;;;;5468754;26;20010;-83
2024/04/12 03:21:08;;;;;;;;;;;;;;;;;;5461241;26;20080;-81
2024/04/12 03:23:34;;;;;;;;;;;;;;;;;;5466689;26;20024;-83
2024/04/12 03:26:03;;;;;;;;;;;;;;;;;;5467157;26;19998;-84
2024/04/12 03:28:30;;;;;;;;;;;;;;;;;;5465725;26;20014;-83
2024/04/12 03:30:58;;;;;;;;;;;;;;;;;;5468083;26;20014;-82
2024/04/12 03:33:24;;;;;;;;;;;;;;;;;;5466846;26;20014;-83
2024/04/12 03:35:54;;;;;;;;;;;;;;;;;;5466946;26;20038;-83
2024/04/12 03:38:28;;;;;;;;;;;;;;;;;;5467620;26;20002;-83
2024/04/12 03:40:57;;;;;;;;;;;;;;;;;;5468025;26;20010;-83
2024/04/12 03:43:23;;;;;;;;;;;;;;;;;;5467284;26;19999;-84
2024/04/12 03:45:51;;;;;;;;;;;;;;;;;;5467734;26;20030;-84
2024/04/12 03:48:19;;;;;;;;;;;;;;;;;;5465614;26;20006;-83
2024/04/12 03:50:48;;;;;;;;;;;;;;;;;;5456553;26;20014;-83
2024/04/12 03:53:14;;;;;;;;;;;;;;;;;;5466528;26;20002;-83
2024/04/12 03:55:45;;;;;;;;;;;;;;;;;;5465039;26;20021;-83
2024/04/12 03:58:16;;;;;;;;;;;;;;;;;;5466059;26;20003;-84
2024/04/12 04:00:45;;;;;;;;;;;;;;;;;;5466176;26;20002;-84
2024/04/12 04:03:30;;;;;;;;;;;;;;;;;;5462063;26;20734;-82
2024/04/12 04:06:05;;;;;;;;;;;;;;;;;;5457675;26;20006;-83
2024/04/12 04:08:35;;;;;;;;;;;;;;;;;;5451042;26;20067;-82
2024/04/12 04:11:08;;;;;;;;;;;;;;;;;;5465274;26;20005;-84
2024/04/12 04:13:35;;;;;;;;;;;;;;;;;;5456901;26;20059;-82
2024/04/12 04:16:05;;;;;;;;;;;;;;;;;;5466746;26;20026;-82
2024/04/12 04:18:32;;;;;;;;;;;;;;;;;;5464701;26;20066;-83
2024/04/12 04:21:06;;;;;;;;;;;;;;;;;;5463253;26;20002;-84
2024/04/12 04:23:38;;;;;;;;;;;;;;;;;;5470504;26;19997;-82
2024/04/12 04:26:08;;;;;;;;;;;;;;;;;;5470458;26;20096;-83
2024/04/12 04:28:34;;;;;;;;;;;;;;;;;;5459416;26;20002;-81
2024/04/12 04:31:05;;;;;;;;;;;;;;;;;;5463845;26;20055;-83
2024/04/12 04:33:33;;;;;;;;;;;;;;;;;;5474216;26;20002;-82
2024/04/12 04:36:08;;;;;;;;;;;;;;;;;;5501417;26;20002;-83
2024/04/12 04:38:36;;;;;;;;;;;;;;;;;;5482405;26;20375;-83
2024/04/12 04:41:06;;;;;;;;;;;;;;;;;;5471934;26;19999;-82
2024/04/12 04:43:33;;;;;;;;;;;;;;;;;;5475971;26;20017;-82
2024/04/12 04:46:10;;;;;;;;;;;;;;;;;;5477443;26;20009;-84
2024/04/12 04:48:36;;;;;;;;;;;;;;;;;;5485769;26;20013;-84
2024/04/12 04:51:06;;;;;;;;;;;;;;;;;;5513505;26;19994;-85
2024/04/12 04:53:32;;;;;;;;;;;;;;;;;;5515304;26;20035;-85
2024/04/12 04:56:01;;;;;;;;;;;;;;;;;;5515033;26;19990;-81
2024/04/12 04:58:28;;;;;;;;;;;;;;;;;;5512533;26;20006;-85
2024/04/12 05:00:58;;;;;;;;;;;;;;;;;;5513764;26;20050;-87
2024/04/12 05:03:24;;;;;;;;;;;;;;;;;;5507044;26;20020;-86
2024/04/12 05:05:52;;;;;;;;;;;;;;;;;;5515298;26;20050;-84
2024/04/12 05:08:20;;;;;;;;;;;;;;;;;;5513627;26;20021;-87
2024/04/12 05:10:48;;;;;;;;;;;;;;;;;;5514970;26;20010;-84
2024/04/12 05:13:17;;;;;;;;;;;;;;;;;;5514293;26;20026;-84
2024/04/12 05:15:52;;;;;;;;;;;;;;;;;;5506887;26;20006;-83
2024/04/12 05:18:17;;;;;;;;;;;;;;;;;;5489087;26;20009;-84
2024/04/12 05:20:47;;;;;;;;;;;;;;;;;;5505191;26;20735;-82
2024/04/12 05:23:13;;;;;;;;;;;;;;;;;;5513963;26;19990;-84
2024/04/12 05:25:43;;;;;;;;;;;;;;;;;;5513689;26;20002;-85
2024/04/12 05:28:09;;;;;;;;;;;;;;;;;;5511215;26;20026;-81
2024/04/12 05:30:40;;;;;;;;;;;;;;;;;;5493718;26;20011;-82
2024/04/12 05:33:06;;;;;;;;;;;;;;;;;;5454251;26;19998;-82
2024/04/12 05:35:34;;;;;;;;;;;;;;;;;;5456673;26;20074;-82
2024/04/12 05:38:01;;;;;;;;;;;;;;;;;;5484266;26;20037;-82
2024/04/12 05:40:34;;;;;;;;;;;;;;;;;;5455074;26;19999;-82
2024/04/12 05:43:00;;;;;;;;;;;;;;;;;;5457012;26;20069;-83
2024/04/12 05:45:29;;;;;;;;;;;;;;;;;;5441975;26;20006;-83
2024/04/12 05:47:59;;;;;;;;;;;;;;;;;;5443757;26;20006;-83
2024/04/12 05:50:28;;;;;;;;;;;;;;;;;;5446677;26;19998;-80
2024/04/12 05:52:54;;;;;;;;;;;;;;;;;;5456631;26;19999;-82
2024/04/12 05:55:24;;;;;;;;;;;;;;;;;;5475202;26;20010;-79
2024/04/12 05:57:50;;;;;;;;;;;;;;;;;;5480236;26;20403;-79
2024/04/12 06:00:23;;;;;;;;;;;;;;;;;;5491405;26;20466;-79
2024/04/12 06:02:49;;;;;;;;;;;;;;;;;;5488283;26;20002;-78
2024/04/12 06:05:19;;;;;;;;;;;;;;;;;;5459791;26;20082;-78
2024/04/12 06:07:47;;;;;;;;;;;;;;;;;;5457673;26;20029;-78
2024/04/12 06:10:17;;;;;;;;;;;;;;;;;;5455592;26;20034;-79
2024/04/12 06:12:45;;;;;;;;;;;;;;;;;;5454651;26;20025;-79
2024/04/12 06:15:15;;;;;;;;;;;;;;;;;;5452619;26;20025;-81
2024/04/12 06:17:41;;;;;;;;;;;;;;;;;;5446374;26;20026;-81
2024/04/12 06:20:11;;;;;;;;;;;;;;;;;;5475131;26;20290;-81
2024/04/12 06:22:37;;;;;;;;;;;;;;;;;;5467387;26;19998;-82
2024/04/12 06:25:08;;;;;;;;;;;;;;;;;;5473696;26;20002;-81
2024/04/12 06:27:34;;;;;;;;;;;;;;;;;;5492724;26;20026;-80
2024/04/12 06:30:05;;;;;;;;;;;;;;;;;;5493775;26;20018;-80
2024/04/12 06:32:31;;;;;;;;;;;;;;;;;;5493162;26;20370;-81
2024/04/12 06:35:03;;;;;;;;;;;;;;;;;;5494208;26;20002;-81
2024/04/12 06:37:31;;;;;;;;;;;;;;;;;;5462254;26;19995;-82
2024/04/12 06:40:03;;;;;;;;;;;;;;;;;;5447295;26;20020;-81
2024/04/12 06:42:29;;;;;;;;;;;;;;;;;;5442910;26;20003;-80
2024/04/12 06:45:01;;;;;;;;;;;;;;;;;;5444476;26;20459;-80
2024/04/12 06:47:27;;;;;;;;;;;;;;;;;;5457421;26;20020;-81
2024/04/12 06:50:08;;;;;;;;;;;;;;;;;;5456444;26;20006;-82
2024/04/12 06:52:34;;;;;;;;;;;;;;;;;;5476147;26;20361;-81
2024/04/12 06:55:03;;;;;;;;;;;;;;;;;;5486050;26;20404;-82
2024/04/12 06:57:33;;;;;;;;;;;;;;;;;;5476777;26;19994;-80
2024/04/12 07:00:07;;;;;;;;;;;;;;;;;;5465757;26;20470;-81
2024/04/12 07:02:33;;;;;;;;;;;;;;;;;;5472504;26;20018;-80
2024/04/12 07:05:05;;;;;;;;;;;;;;;;;;5457747;26;19998;-81
2024/04/12 07:07:32;;;;;;;;;;;;;;;;;;5458739;26;20006;-82
2024/04/12 07:10:09;;;;;;;;;;;;;;;;;;5483402;26;20024;-80
2024/04/12 07:12:38;;;;;;;;;;;;;;;;;;5443390;26;20050;-81
2024/04/12 07:15:09;;;;;;;;;;;;;;;;;;5458999;26;20497;-82
2024/04/12 07:17:39;;;;;;;;;;;;;;;;;;5458381;26;20050;-82
2024/04/12 07:20:08;;;;;;;;;;;;;;;;;;5463817;26;20063;-81
2024/04/12 07:22:36;;;;;;;;;;;;;;;;;;5485161;26;20002;-83
2024/04/12 07:25:07;;;;;;;;;;;;;;;;;;5472684;26;20025;-82
2024/04/12 07:27:40;;;;;;;;;;;;;;;;;;5494223;26;20462;-82
2024/04/12 07:30:06;;;;;;;;;;;;;;;;;;5490806;26;20020;-83
2024/04/12 07:32:38;;;;;;;;;;;;;;;;;;5475315;26;19997;-81
2024/04/12 07:35:22;;;;;;;;;;;;;;;;;;5496192;26;20024;-82
2024/04/12 07:37:54;;;;;;;;;;;;;;;;;;5446357;26;20007;-81
2024/04/12 07:40:20;;;;;;;;;;;;;;;;;;5463292;26;20006;-83
2024/04/12 07:42:48;;;;;;;;;;;;;;;;;;5469475;26;19994;-81
2024/04/12 07:45:17;;;;;;;;;;;;;;;;;;5477893;26;20079;-82
2024/04/12 07:47:52;;;;;;;;;;;;;;;;;;5494479;26;20055;-84
2024/04/12 07:50:21;;;;;;;;;;;;;;;;;;5460305;26;20021;-83
2024/04/12 07:52:50;;;;;;;;;;;;;;;;;;5461337;26;20090;-82
2024/04/12 07:55:23;;;;;;;;;;;;;;;;;;5461907;26;20022;-82
2024/04/12 07:57:52;;;;;;;;;;;;;;;;;;5460221;26;19998;-82
2024/04/12 08:00:27;;;;;;;;;;;;;;;;;;5458003;26;19998;-81
2024/04/12 08:02:56;;;;;;;;;;;;;;;;;;5461122;26;20002;-81
2024/04/12 08:05:25;;;;;;;;;;;;;;;;;;5456893;26;20021;-80
2024/04/12 08:07:57;;;;;;;;;;;;;;;;;;5470654;26;20003;-83
2024/04/12 08:10:29;;;;;;;;;;;;;;;;;;5456204;26;19994;-82
2024/04/12 08:12:57;;;;;;;;;;;;;;;;;;5453376;26;20003;-82
2024/04/12 08:15:23;;;;;;;;;;;;;;;;;;5455143;26;20002;-81
2024/04/12 08:17:55;;;;;;;;;;;;;;;;;;5487117;26;20024;-80
2024/04/12 08:20:25;;;;;;;;;;;;;;;;;;5497319;26;20024;-82
2024/04/12 08:22:53;;;;;;;;;;;;;;;;;;5453373;26;19999;-83
2024/04/12 08:25:26;;;;;;;;;;;;;;;;;;5495724;26;20244;-81
2024/04/12 08:27:55;;;;;;;;;;;;;;;;;;5472332;26;19998;-82
2024/04/12 08:30:22;;;;;;;;;;;;;;;;;;5450888;26;20010;-82
2024/04/12 08:32:51;;;;;;;;;;;;;;;;;;5455109;26;20412;-80
2024/04/12 08:35:19;;;;;;;;;;;;;;;;;;5460431;26;20013;-81
2024/04/12 08:37:48;;;;;;;;;;;;;;;;;;5458733;26;20416;-79
2024/04/12 08:40:19;;;;;;;;;;;;;;;;;;5459844;26;20002;-80
2024/04/12 08:42:47;;;;;;;;;;;;;;;;;;5485727;26;19998;-79
2024/04/12 08:45:13;;;;;;;;;;;;;;;;;;5483874;26;19995;-80
2024/04/12 08:47:51;;;;;;;;;;;;;;;;;;5498056;26;20009;-80
2024/04/12 08:50:17;;;;;;;;;;;;;;;;;;5495419;26;20024;-81
2024/04/12 08:52:47;;;;;;;;;;;;;;;;;;5485651;26;19997;-81
2024/04/12 08:55:13;;;;;;;;;;;;;;;;;;5495939;26;20486;-80
2024/04/12 08:57:42;;;;;;;;;;;;;;;;;;5494067;26;19994;-80
2024/04/12 09:00:09;;;;;;;;;;;;;;;;;;5496741;26;20010;-80
2024/04/12 09:02:40;;;;;;;;;;;;;;;;;;5491276;26;20022;-80
2024/04/12 09:05:06;;;;;;;;;;;;;;;;;;5501681;26;19998;-80
2024/04/12 09:07:35;;;;;;;;;;;;;;;;;;5499473;26;20002;-79
2024/04/12 09:10:01;;;;;;;;;;;;;;;;;;5497709;26;20490;-82
2024/04/12 09:12:30;;;;;;;;;;;;;;;;;;5491767;26;20002;-81
2024/04/12 09:14:56;;;;;;;;;;;;;;;;;;5496004;26;19994;-80
2024/04/12 09:17:28;;;;;;;;;;;;;;;;;;5494348;26;20062;-80
2024/04/12 09:19:54;;;;;;;;;;;;;;;;;;5494944;26;20348;-81
2024/04/12 09:22:23;;;;;;;;;;;;;;;;;;5469323;26;20003;-80
2024/04/12 09:24:49;;;;;;;;;;;;;;;;;;5458792;26;20014;-80
2024/04/12 09:27:22;;;;;;;;;;;;;;;;;;5458241;26;20343;-80
2024/04/12 09:29:54;;;;;;;;;;;;;;;;;;5458165;26;20020;-80
2024/04/12 09:35:13;;;;;;;;;;;;;;;;;;5455420;26;20020;-79
2024/04/12 09:37:43;;;;;;;;;;;;;;;;;;5461765;26;20332;-79
2024/04/12 09:40:26;;;;;;;;;;;;;;;;;;5462618;26;20006;-79
2024/04/12 09:45:49;;;;;;;;;;;;;;;;;;5459461;26;20064;-79
2024/04/12 10:37:47;;;;;;;;;;;;;;;;;;5458836;26;20056;-81
2024/04/12 10:40:16;;;;;;;;;;;;;;;;;;5457141;26;20104;-81
2024/04/12 10:42:46;;;;;;;;;;;;;;;;;;5445254;26;20006;-80
2024/04/12 10:45:15;;;;;;;;;;;;;;;;;;5456598;26;20025;-80
2024/04/12 10:47:44;;;;;;;;;;;;;;;;;;5457637;26;20032;-81
2024/04/12 10:50:10;;;;;;;;;;;;;;;;;;5458832;26;19999;-79
2024/04/12 10:52:39;;;;;;;;;;;;;;;;;;5445533;26;20042;-80
2024/04/12 10:55:08;;;;;;;;;;;;;;;;;;5457930;26;20024;-82
2024/04/12 10:57:37;;;;;;;;;;;;;;;;;;5457286;26;20003;-80
2024/04/12 11:00:05;;;;;;;;;;;;;;;;;;5457926;26;20340;-80
2024/04/12 11:02:35;;;;;;;;;;;;;;;;;;5455038;26;20466;-81
2024/04/12 11:05:24;;;;;;;;;;;;;;;;;;5450633;26;20003;-81
2024/04/12 11:07:53;;;;;;;;;;;;;;;;;;5454809;26;20033;-81
2024/04/12 11:10:24;;;;;;;;;;;;;;;;;;5457785;26;20029;-81
2024/04/12 11:12:59;;;;;;;;;;;;;;;;;;5449866;26;20003;-82
2024/04/12 11:31:57;;;;;;;;;;;;;;;;;;5458718;26;20102;-82
2024/04/12 11:34:29;;;;;;;;;;;;;;;;;;5458131;26;19998;-81
2024/04/12 11:36:57;;;;;;;;;;;;;;;;;;5457244;26;20032;-82
2024/04/12 11:39:25;;;;;;;;;;;;;;;;;;5457722;26;19998;-81
2024/04/12 11:41:55;;;;;;;;;;;;;;;;;;5448413;26;20003;-82
2024/04/12 11:44:23;;;;;;;;;;;;;;;;;;5452997;26;20462;-81
2024/04/12 11:46:49;;;;;;;;;;;;;;;;;;5445767;26;19999;-81
2024/04/12 11:49:25;;;;;;;;;;;;;;;;;;5456027;26;19998;-82
2024/04/12 11:51:55;;;;;;;;;;;;;;;;;;5448169;26;20033;-82
2024/04/12 11:54:24;;;;;;;;;;;;;;;;;;5456534;26;20484;-80
2024/04/12 11:56:50;;;;;;;;;;;;;;;;;;5447211;26;20006;-81
2024/04/12 11:59:20;;;;;;;;;;;;;;;;;;5460314;26;20011;-81
2024/04/12 12:01:46;;;;;;;;;;;;;;;;;;5449357;26;20002;-79
2024/04/12 12:04:14;;;;;;;;;;;;;;;;;;5448336;26;20026;-81
2024/04/12 12:06:41;;;;;;;;;;;;;;;;;;5460993;26;20006;-81
2024/04/12 12:09:13;;;;;;;;;;;;;;;;;;5452417;26;20030;-81
2024/04/12 12:11:41;;;;;;;;;;;;;;;;;;5448656;26;20255;-81
2024/04/12 12:14:09;;;;;;;;;;;;;;;;;;5452961;26;20079;-81
2024/04/12 12:16:36;;;;;;;;;;;;;;;;;;5451075;26;20002;-83
2024/04/12 12:19:06;;;;;;;;;;;;;;;;;;5445244;26;20026;-82
2024/04/12 12:21:32;;;;;;;;;;;;;;;;;;5451354;26;20020;-81
2024/04/12 12:24:01;;;;;;;;;;;;;;;;;;5443457;26;20463;-81
2024/04/12 12:26:28;;;;;;;;;;;;;;;;;;5449823;26;20087;-83
2024/04/12 12:28:57;;;;;;;;;;;;;;;;;;5444479;26;20050;-83
2024/04/12 12:31:23;;;;;;;;;;;;;;;;;;5453230;26;20473;-82
2024/04/12 12:33:52;;;;;;;;;;;;;;;;;;5438245;26;20083;-81
2024/04/12 12:36:18;;;;;;;;;;;;;;;;;;5452348;26;20003;-84
2024/04/12 12:38:48;;;;;;;;;;;;;;;;;;5451791;26;20006;-84
2024/04/12 12:41:14;;;;;;;;;;;;;;;;;;5460036;26;20390;-83
2024/04/12 12:43:44;;;;;;;;;;;;;;;;;;5454506;26;20028;-82
2024/04/12 12:46:10;;;;;;;;;;;;;;;;;;5460962;26;20002;-81
2024/04/12 12:48:39;;;;;;;;;;;;;;;;;;5463214;26;19998;-85
2024/04/12 12:51:06;;;;;;;;;;;;;;;;;;5459325;26;20050;-85
2024/04/12 12:53:34;;;;;;;;;;;;;;;;;;5496654;26;20051;-85
2024/04/12 12:56:00;;;;;;;;;;;;;;;;;;5514388;26;20059;-86
2024/04/12 12:58:29;;;;;;;;;;;;;;;;;;5480750;26;20050;-82
2024/04/12 13:01:00;;;;;;;;;;;;;;;;;;5455274;26;19998;-82
2024/04/12 13:03:31;;;;;;;;;;;;;;;;;;5455640;26;20010;-83
2024/04/12 13:05:57;;;;;;;;;;;;;;;;;;5455342;26;20002;-81
2024/04/12 13:08:26;;;;;;;;;;;;;;;;;;5447569;26;20031;-80
2024/04/12 13:10:56;;;;;;;;;;;;;;;;;;5455831;26;20010;-81
2024/04/12 13:13:26;;;;;;;;;;;;;;;;;;5456387;26;19994;-81
2024/04/12 13:15:55;;;;;;;;;;;;;;;;;;5455728;26;20064;-82
2024/04/12 13:18:24;;;;;;;;;;;;;;;;;;5448474;26;20025;-81
2024/04/12 13:20:50;;;;;;;;;;;;;;;;;;5455122;26;20006;-82
2024/04/12 13:23:19;;;;;;;;;;;;;;;;;;5473984;26;20050;-82
2024/04/12 13:25:45;;;;;;;;;;;;;;;;;;5491534;26;20025;-80
2024/04/12 13:28:14;;;;;;;;;;;;;;;;;;5484048;26;19998;-80
2024/04/12 13:30:40;;;;;;;;;;;;;;;;;;5492653;26;19998;-83
2024/04/12 13:33:09;;;;;;;;;;;;;;;;;;5491342;26;20013;-82
2024/04/12 13:35:34;;;;;;;;;;;;;;;;;;5492075;26;20006;-81
2024/04/12 13:38:03;;;;;;;;;;;;;;;;;;5454225;26;20003;-82
2024/04/12 13:40:31;;;;;;;;;;;;;;;;;;5454580;26;20014;-81
2024/04/12 13:43:00;;;;;;;;;;;;;;;;;;5455008;26;20025;-82
2024/04/12 13:50:58;;;;;;;;;;;;;;;;;;5470520;26;20041;-82
2024/04/12 13:53:32;;;;;;;;;;;;;;;;;;5491084;26;20173;-81
2024/04/12 13:56:19;;;;;;;;;;;;;;;;;;5490984;26;20470;-80
2024/04/12 13:58:48;;;;;;;;;;;;;;;;;;5471781;26;20025;-81
2024/04/12 14:01:17;;;;;;;;;;;;;;;;;;5488321;26;20930;-82
2024/04/12 14:03:43;;;;;;;;;;;;;;;;;;5490578;26;20024;-83
2024/04/12 14:06:12;;;;;;;;;;;;;;;;;;5493643;26;20002;-83
2024/04/12 14:08:38;;;;;;;;;;;;;;;;;;5489063;26;20066;-84
2024/04/12 14:11:07;;;;;;;;;;;;;;;;;;5495781;26;20020;-84
2024/04/12 14:13:33;;;;;;;;;;;;;;;;;;5495228;26;20432;-83
2024/04/12 14:16:02;;;;;;;;;;;;;;;;;;5481194;26;20003;-84
2024/04/12 14:18:29;;;;;;;;;;;;;;;;;;5465679;26;20009;-83
2024/04/12 14:20:58;;;;;;;;;;;;;;;;;;5497029;26;19998;-83
2024/04/12 14:23:24;;;;;;;;;;;;;;;;;;5497205;26;20063;-82
2024/04/12 14:25:53;;;;;;;;;;;;;;;;;;5493900;26;20458;-83
2024/04/12 14:28:21;;;;;;;;;;;;;;;;;;5485628;26;20002;-84
2024/04/12 14:30:48;;;;;;;;;;;;;;;;;;5494056;26;20013;-83
2024/04/12 14:33:17;;;;;;;;;;;;;;;;;;5492826;26;20014;-83
2024/04/12 14:35:43;;;;;;;;;;;;;;;;;;5492170;26;20056;-84
2024/04/12 14:38:15;;;;;;;;;;;;;;;;;;5464967;26;20397;-82
2024/04/12 14:40:50;;;;;;;;;;;;;;;;;;5466148;26;19998;-83
2024/04/12 14:43:20;;;;;;;;;;;;;;;;;;5457233;26;20014;-83
2024/04/12 14:45:46;;;;;;;;;;;;;;;;;;5455985;26;20017;-84
2024/04/12 14:48:15;;;;;;;;;;;;;;;;;;5451797;26;20046;-84
2024/04/12 14:50:41;;;;;;;;;;;;;;;;;;5456397;26;20020;-84
2024/04/12 14:53:09;;;;;;;;;;;;;;;;;;5486167;26;19998;-84
2024/04/12 14:55:36;;;;;;;;;;;;;;;;;;5491019;26;20010;-83
2024/04/12 14:58:06;;;;;;;;;;;;;;;;;;5454793;26;20042;-82
2024/04/12 15:00:32;;;;;;;;;;;;;;;;;;5475877;26;20002;-83
2024/04/12 15:49:29;;;;;;;;;;;;;;;;;;5492791;26;20028;-83
2024/04/12 15:52:07;;;;;;;;;;;;;;;;;;5493261;26;20002;-81
2024/04/12 15:54:35;;;;;;;;;;;;;;;;;;5490137;26;19998;-81
2024/04/12 16:10:52;;;;;;;;;;;;;;;;;;5459943;26;20074;-82
2024/04/12 16:13:21;;;;;;;;;;;;;;;;;;5458732;26;20385;-81
2024/04/12 16:15:50;;;;;;;;;;;;;;;;;;5460739;26;20563;-82
2024/04/12 16:18:19;;;;;;;;;;;;;;;;;;5448464;26;20075;-82
2024/04/12 16:20:47;;;;;;;;;;;;;;;;;;5453747;26;20007;-83
2024/04/12 16:23:16;;;;;;;;;;;;;;;;;;5456518;26;20087;-83
2024/04/12 16:25:44;;;;;;;;;;;;;;;;;;5460837;26;20025;-82
2024/04/12 16:28:11;;;;;;;;;;;;;;;;;;5464416;26;20014;-81
2024/04/12 16:30:41;;;;;;;;;;;;;;;;;;5509199;26;19994;-82
2024/04/12 16:33:07;;;;;;;;;;;;;;;;;;5473315;26;19999;-81
2024/04/12 16:35:35;;;;;;;;;;;;;;;;;;5473617;26;20018;-81
2024/04/12 16:38:03;;;;;;;;;;;;;;;;;;5464148;26;19994;-81
2024/04/12 16:40:31;;;;;;;;;;;;;;;;;;5478713;26;20083;-81
2024/04/12 16:42:57;;;;;;;;;;;;;;;;;;5471894;26;20032;-80
2024/04/12 16:45:26;;;;;;;;;;;;;;;;;;5460868;26;20006;-80
2024/04/12 16:47:55;;;;;;;;;;;;;;;;;;5468402;26;20528;-81
2024/04/12 16:50:24;;;;;;;;;;;;;;;;;;5484641;26;20021;-81
2024/04/12 16:52:50;;;;;;;;;;;;;;;;;;5470628;26;20022;-81
2024/04/12 16:55:19;;;;;;;;;;;;;;;;;;5479085;26;19998;-82
2024/04/12 16:57:45;;;;;;;;;;;;;;;;;;5460378;26;20478;-82
2024/04/12 17:00:14;;;;;;;;;;;;;;;;;;5466375;26;20020;-82
2024/04/12 17:02:41;;;;;;;;;;;;;;;;;;5459260;26;20003;-82
2024/04/12 17:05:11;;;;;;;;;;;;;;;;;;5485076;26;20006;-82
2024/04/12 17:07:38;;;;;;;;;;;;;;;;;;5463278;26;20054;-82
2024/04/12 17:10:07;;;;;;;;;;;;;;;;;;5454408;26;20032;-81
2024/04/12 17:12:33;;;;;;;;;;;;;;;;;;5462508;26;20266;-81
2024/04/12 17:15:03;;;;;;;;;;;;;;;;;;5493554;26;20041;-82
2024/04/12 17:17:29;;;;;;;;;;;;;;;;;;5449542;26;20038;-82
2024/04/12 17:19:58;;;;;;;;;;;;;;;;;;5464115;26;20007;-81
2024/04/12 17:22:24;;;;;;;;;;;;;;;;;;5448760;26;20025;-82
2024/04/12 17:24:53;;;;;;;;;;;;;;;;;;5461619;26;20002;-83
2024/04/12 17:27:18;;;;;;;;;;;;;;;;;;5466558;26;20006;-83
2024/04/12 17:29:49;;;;;;;;;;;;;;;;;;5489546;26;20083;-82
2024/04/12 17:32:15;;;;;;;;;;;;;;;;;;5466852;26;19998;-83
2024/04/12 17:34:44;;;;;;;;;;;;;;;;;;5474477;26;20358;-82
2024/04/12 17:37:10;;;;;;;;;;;;;;;;;;5462762;26;20025;-82
2024/04/12 17:39:38;;;;;;;;;;;;;;;;;;5464117;26;20543;-83
2024/04/12 17:42:05;;;;;;;;;;;;;;;;;;5463270;26;20018;-81
2024/04/12 17:44:39;;;;;;;;;;;;;;;;;;5462577;26;20010;-82
2024/04/12 17:47:05;;;;;;;;;;;;;;;;;;5461358;26;20116;-82
2024/04/12 17:49:35;;;;;;;;;;;;;;;;;;5464083;26;20010;-81
2024/04/12 17:52:01;;;;;;;;;;;;;;;;;;5461885;26;20002;-81
2024/04/12 17:54:30;;;;;;;;;;;;;;;;;;5496899;26;20575;-81
2024/04/12 17:56:56;;;;;;;;;;;;;;;;;;5495103;26;20082;-81
2024/04/12 17:59:27;;;;;;;;;;;;;;;;;;5464032;26;20010;-81
2024/04/12 18:01:53;;;;;;;;;;;;;;;;;;5447148;26;20006;-81
2024/04/12 18:04:22;;;;;;;;;;;;;;;;;;5451514;26;20017;-81
2024/04/12 18:06:48;;;;;;;;;;;;;;;;;;5448004;26;20414;-82
2024/04/12 18:09:17;;;;;;;;;;;;;;;;;;5455158;26;20035;-81
2024/04/12 18:11:42;;;;;;;;;;;;;;;;;;5457041;26;20398;-81
2024/04/12 18:14:15;;;;;;;;;;;;;;;;;;5457202;26;20006;-82
2024/04/12 18:16:41;;;;;;;;;;;;;;;;;;5476212;26;20047;-81
2024/04/12 18:19:10;;;;;;;;;;;;;;;;;;5461064;26;20003;-81
2024/04/12 18:21:41;;;;;;;;;;;;;;;;;;5453771;26;19995;-81
2024/04/12 18:24:09;;;;;;;;;;;;;;;;;;5467816;26;20026;-81
2024/04/12 18:26:35;;;;;;;;;;;;;;;;;;5469435;26;20020;-82
2024/04/12 18:29:04;;;;;;;;;;;;;;;;;;5463831;26;20002;-81
2024/04/12 18:31:30;;;;;;;;;;;;;;;;;;5477859;26;20059;-81
2024/04/12 18:33:58;;;;;;;;;;;;;;;;;;5474340;26;20006;-82
2024/04/12 18:36:34;;;;;;;;;;;;;;;;;;5447963;26;20003;-81
2024/04/12 18:47:16;;;;;;;;;;;;;;;;;;5456556;26;20029;-82
2024/04/12 18:49:44;;;;;;;;;;;;;;;;;;5469327;26;20028;-81
2024/04/12 18:52:13;;;;;;;;;;;;;;;;;;5458955;26;20014;-82
2024/04/12 18:54:39;;;;;;;;;;;;;;;;;;5464039;26;20246;-81
2024/04/12 18:57:08;;;;;;;;;;;;;;;;;;5450943;26;20007;-81
2024/04/12 18:59:34;;;;;;;;;;;;;;;;;;5471164;26;20002;-81
2024/04/12 19:02:02;;;;;;;;;;;;;;;;;;5454530;26;20003;-82
2024/04/12 19:04:28;;;;;;;;;;;;;;;;;;5465831;26;20036;-82
2024/04/12 19:06:57;;;;;;;;;;;;;;;;;;5461440;26;20217;-84
2024/04/12 19:09:23;;;;;;;;;;;;;;;;;;5463411;26;20021;-84
2024/04/12 19:11:52;;;;;;;;;;;;;;;;;;5461866;26;20007;-83
2024/04/12 19:14:19;;;;;;;;;;;;;;;;;;5462031;26;20036;-83
2024/04/12 19:16:49;;;;;;;;;;;;;;;;;;5467305;26;20006;-84
2024/04/12 19:19:15;;;;;;;;;;;;;;;;;;5468287;26;20032;-83
2024/04/12 19:21:44;;;;;;;;;;;;;;;;;;5491817;26;20010;-84
2024/04/12 19:24:10;;;;;;;;;;;;;;;;;;5505370;26;20059;-83